Monte Rio, CA (95462)

11:35 PM PDT on October 20, 2014 (GMT -0700)
The Terraces, Monte Rio | Change Station
CLOSE
Current Station
Personal Weather Station
Location: Monte Rio, CA
Elevation: 36 ft
Nearby Weather Stations

Elev 36 ft 38.47 °N, 123.01 °W | Updated 2 minutes ago

Clear
Clear
51.2 °F
Feels Like 51.2 °F
N
0.0
Wind Variable Wind from NNE
Gusts 0.0 mph

Today
High -- | Low -- °F
--% Chance of Precip.
Yesterday
High -- | Low -- °F
Precip. -- in
7:26 AM 6:26 PM
Waning Crescent, 7% visible
Pressure 30.02 in
Visibility 10.0 miles
Clouds Clear
Dew Point 51 °F
Humidity 98%
Rainfall 0.23 in
Snow Depth Not available.
UV 0 out of 12
Pollen 1.80 out of 12
Air Quality Not available.
Flu Activity Sporadic
METAR KSTS 210553Z AUTO 00000KT 10SM CLR 11/09 A3003 RMK AO2 SLP164 T01110094 10189 20106 53017

More Conditions Fewer Conditions

Pressure 30.02 in
Visibility 10.0 miles
Clouds Clear
Dew Point 51 °F
Humidity 98%
Rainfall 0.23 in
Snow Depth Not available.
UV 0 out of 12
Pollen 1.80 out of 12
Air Quality Not available.
Flu Activity Sporadic
METAR KSTS 210553Z AUTO 00000KT 10SM CLR 11/09 A3003 RMK AO2 SLP164 T01110094 10189 20106 53017

More Conditions Fewer Conditions

10-Day Weather Forecast

Almanac

Astronomy

Oct. 20, 2014 Rise Set
Actual Time 7:26 AM PDT 6:26 PM PDT
Civil Twilight 6:59 AM PDT 6:53 PM PDT
Nautical Twilight 6:28 AM PDT 7:24 PM PDT
Astronomical Twilight 5:57 AM PDT 7:55 PM PDT
Moon 4:21 AM PDT (10/20) 4:50 PM PDT (10/20)
Length of Visible Light 11h 54m
Length of Day
11h 00m
Tomorrow will be 2m 20s shorter.
Waning Crescent, 7% of the Moon is Illuminated
Oct 21
Waning Crescent
Oct 23
New
Oct 30
First Quarter
Nov 6
Full
Nov 14
Last Quarter

Community

WunderPhotos

Upload Photos

1,763,617 photos uploaded!

Nearby

Air Quality

  Air Quality AQ Index Pollutant
Monday Good
PM2.5
Tuesday Good
PM2.5
Wednesday Good
PM2.5
Thursday Good
PM2.5
Friday Good
PM2.5
Saturday Good
PM2.5

Snow Depth

Station Depth Elevation
CSS Lab 1 in 6900 ft
Ward Creek #3 1 in 6750 ft
Squaw Valley 0 in 8200 ft
Independence Lake 0 in 8450 ft
Rubicon #2 1 in 7500 ft

Earthquake Activity

City Distance Mag. Time & Date
Rio Dell, California 143 miles 4.2 7:24 AM PDT
2014-10-19
East Foothills, California 102 miles 2.6 8:16 AM PDT
2014-10-18
Minimum magnitude displayed is 2.5.

Coastal Water Temperatures

Place Temperature
Point Reyes, CA 60.1 °F
Arena Cove, CA 61.0 °F
San Francisco, CA 62.1 °F
Richmond, CA 64.0 °F

Nearby Weather Stations